sensor_id;sensor_type;location;lat;lon;timestamp;temperature;humidity
25668;DHT22;18003;-33.830;151.202;2023-05-14T00:01:01;16.40;99.90
25668;DHT22;18003;-33.830;151.202;2023-05-14T00:03:31;16.40;99.90
25668;DHT22;18003;-33.830;151.202;2023-05-14T00:06:02;16.40;99.90
25668;DHT22;18003;-33.830;151.202;2023-05-14T00:08:33;16.40;99.90
25668;DHT22;18003;-33.830;151.202;2023-05-14T00:11:03;16.40;99.90
25668;DHT22;18003;-33.830;151.202;2023-05-14T00:13:34;16.40;99.90
25668;DHT22;18003;-33.830;151.202;2023-05-14T00:16:05;16.50;99.90
25668;DHT22;18003;-33.830;151.202;2023-05-14T00:18:35;16.50;99.90
25668;DHT22;18003;-33.830;151.202;2023-05-14T00:21:05;16.50;99.90
25668;DHT22;18003;-33.830;151.202;2023-05-14T00:23:36;16.40;99.90
25668;DHT22;18003;-33.830;151.202;2023-05-14T00:26:06;16.40;99.90
25668;DHT22;18003;-33.830;151.202;2023-05-14T00:28:36;16.50;99.90
25668;DHT22;18003;-33.830;151.202;2023-05-14T00:31:06;16.50;99.90
25668;DHT22;18003;-33.830;151.202;2023-05-14T00:33:35;16.50;99.90
25668;DHT22;18003;-33.830;151.202;2023-05-14T00:36:07;16.50;99.90
25668;DHT22;18003;-33.830;151.202;2023-05-14T00:38:37;16.50;99.90
25668;DHT22;18003;-33.830;151.202;2023-05-14T00:41:07;16.50;99.90
25668;DHT22;18003;-33.830;151.202;2023-05-14T00:43:37;16.50;99.90
25668;DHT22;18003;-33.830;151.202;2023-05-14T00:46:08;16.60;99.90
25668;DHT22;18003;-33.830;151.202;2023-05-14T00:48:39;16.60;99.90
25668;DHT22;18003;-33.830;151.202;2023-05-14T00:51:09;16.60;99.90
25668;DHT22;18003;-33.830;151.202;2023-05-14T00:53:39;16.60;99.90
25668;DHT22;18003;-33.830;151.202;2023-05-14T00:56:10;16.60;99.90
25668;DHT22;18003;-33.830;151.202;2023-05-14T00:58:40;16.60;99.90
25668;DHT22;18003;-33.830;151.202;2023-05-14T01:01:10;16.60;99.90
25668;DHT22;18003;-33.830;151.202;2023-05-14T01:03:42;16.60;99.90
25668;DHT22;18003;-33.830;151.202;2023-05-14T01:06:22;16.70;99.90
25668;DHT22;18003;-33.830;151.202;2023-05-14T01:09:10;16.70;99.90
25668;DHT22;18003;-33.830;151.202;2023-05-14T01:12:07;16.60;99.90
25668;DHT22;18003;-33.830;151.202;2023-05-14T01:17:34;16.70;99.90
25668;DHT22;18003;-33.830;151.202;2023-05-14T01:20:03;16.70;99.90
25668;DHT22;18003;-33.830;151.202;2023-05-14T01:22:33;16.80;99.90
25668;DHT22;18003;-33.830;151.202;2023-05-14T01:25:06;16.70;99.90
25668;DHT22;18003;-33.830;151.202;2023-05-14T01:27:40;16.70;99.90
25668;DHT22;18003;-33.830;151.202;2023-05-14T01:32:53;16.80;99.90
25668;DHT22;18003;-33.830;151.202;2023-05-14T01:35:22;16.80;99.90
25668;DHT22;18003;-33.830;151.202;2023-05-14T01:37:54;16.80;99.90
25668;DHT22;18003;-33.830;151.202;2023-05-14T01:40:25;16.80;99.90
25668;DHT22;18003;-33.830;151.202;2023-05-14T01:43:02;16.80;99.90
25668;DHT22;18003;-33.830;151.202;2023-05-14T01:45:33;16.90;99.90
25668;DHT22;18003;-33.830;151.202;2023-05-14T01:48:03;16.80;99.90
25668;DHT22;18003;-33.830;151.202;2023-05-14T01:50:33;16.90;99.90
25668;DHT22;18003;-33.830;151.202;2023-05-14T01:53:03;16.90;99.90
25668;DHT22;18003;-33.830;151.202;2023-05-14T01:55:33;17.00;99.90
25668;DHT22;18003;-33.830;151.202;2023-05-14T01:58:03;17.00;99.90
25668;DHT22;18003;-33.830;151.202;2023-05-14T02:00:33;16.90;99.90
25668;DHT22;18003;-33.830;151.202;2023-05-14T02:03:03;16.90;99.90
25668;DHT22;18003;-33.830;151.202;2023-05-14T02:05:33;17.00;99.90
25668;DHT22;18003;-33.830;151.202;2023-05-14T02:08:03;17.00;99.90
25668;DHT22;18003;-33.830;151.202;2023-05-14T02:10:33;17.10;99.90
25668;DHT22;18003;-33.830;151.202;2023-05-14T02:13:03;17.10;99.90
25668;DHT22;18003;-33.830;151.202;2023-05-14T02:15:33;17.00;99.90
25668;DHT22;18003;-33.830;151.202;2023-05-14T02:18:03;17.00;99.90
25668;DHT22;18003;-33.830;151.202;2023-05-14T02:20:33;17.00;99.90
25668;DHT22;18003;-33.830;151.202;2023-05-14T02:23:03;17.00;99.90
25668;DHT22;18003;-33.830;151.202;2023-05-14T02:25:33;16.90;99.90
25668;DHT22;18003;-33.830;151.202;2023-05-14T02:28:05;17.00;99.90
25668;DHT22;18003;-33.830;151.202;2023-05-14T02:30:35;17.00;99.90
25668;DHT22;18003;-33.830;151.202;2023-05-14T02:33:05;17.00;99.90
25668;DHT22;18003;-33.830;151.202;2023-05-14T02:35:35;16.90;99.90
25668;DHT22;18003;-33.830;151.202;2023-05-14T02:38:05;17.00;99.90
25668;DHT22;18003;-33.830;151.202;2023-05-14T02:40:36;16.90;99.90
25668;DHT22;18003;-33.830;151.202;2023-05-14T02:43:06;16.90;99.90
25668;DHT22;18003;-33.830;151.202;2023-05-14T02:45:37;16.90;99.90
25668;DHT22;18003;-33.830;151.202;2023-05-14T02:48:07;16.90;99.90
25668;DHT22;18003;-33.830;151.202;2023-05-14T02:50:37;17.00;99.90
25668;DHT22;18003;-33.830;151.202;2023-05-14T02:53:07;16.90;99.90
25668;DHT22;18003;-33.830;151.202;2023-05-14T02:55:37;16.90;99.90
25668;DHT22;18003;-33.830;151.202;2023-05-14T02:58:07;17.00;99.90
25668;DHT22;18003;-33.830;151.202;2023-05-14T03:00:37;17.00;99.90
25668;DHT22;18003;-33.830;151.202;2023-05-14T03:03:07;17.00;99.90
25668;DHT22;18003;-33.830;151.202;2023-05-14T03:05:37;17.00;99.90
25668;DHT22;18003;-33.830;151.202;2023-05-14T03:08:07;17.00;99.90
25668;DHT22;18003;-33.830;151.202;2023-05-14T03:10:37;17.00;99.90
25668;DHT22;18003;-33.830;151.202;2023-05-14T03:13:07;17.00;99.90
25668;DHT22;18003;-33.830;151.202;2023-05-14T03:15:37;17.00;99.90
25668;DHT22;18003;-33.830;151.202;2023-05-14T03:18:07;17.00;99.90
25668;DHT22;18003;-33.830;151.202;2023-05-14T03:20:37;17.00;99.90
25668;DHT22;18003;-33.830;151.202;2023-05-14T03:23:07;17.00;99.90
25668;DHT22;18003;-33.830;151.202;2023-05-14T03:25:37;17.00;99.90
25668;DHT22;18003;-33.830;151.202;2023-05-14T03:28:07;17.00;99.90
25668;DHT22;18003;-33.830;151.202;2023-05-14T03:30:38;17.10;99.90
25668;DHT22;18003;-33.830;151.202;2023-05-14T03:33:08;17.10;99.90
25668;DHT22;18003;-33.830;151.202;2023-05-14T03:35:38;17.10;99.90
25668;DHT22;18003;-33.830;151.202;2023-05-14T03:38:08;17.10;99.90
25668;DHT22;18003;-33.830;151.202;2023-05-14T03:40:38;17.20;99.90
25668;DHT22;18003;-33.830;151.202;2023-05-14T03:43:08;17.20;99.90
25668;DHT22;18003;-33.830;151.202;2023-05-14T03:45:39;17.10;99.90
25668;DHT22;18003;-33.830;151.202;2023-05-14T03:48:09;17.10;99.90
25668;DHT22;18003;-33.830;151.202;2023-05-14T03:50:39;17.10;99.90
25668;DHT22;18003;-33.830;151.202;2023-05-14T03:53:09;17.10;99.90
25668;DHT22;18003;-33.830;151.202;2023-05-14T03:55:39;17.10;99.90
25668;DHT22;18003;-33.830;151.202;2023-05-14T03:58:10;17.10;99.90
25668;DHT22;18003;-33.830;151.202;2023-05-14T04:00:44;17.20;99.90
25668;DHT22;18003;-33.830;151.202;2023-05-14T04:03:14;17.20;99.90
25668;DHT22;18003;-33.830;151.202;2023-05-14T04:05:44;17.20;99.90
25668;DHT22;18003;-33.830;151.202;2023-05-14T04:08:14;17.20;99.90
25668;DHT22;18003;-33.830;151.202;2023-05-14T04:10:44;17.20;99.90
25668;DHT22;18003;-33.830;151.202;2023-05-14T04:13:14;17.20;99.90
25668;DHT22;18003;-33.830;151.202;2023-05-14T04:15:47;17.20;99.90
25668;DHT22;18003;-33.830;151.202;2023-05-14T04:18:20;17.20;99.90
25668;DHT22;18003;-33.830;151.202;2023-05-14T04:20:50;17.20;99.90
25668;DHT22;18003;-33.830;151.202;2023-05-14T04:23:20;17.20;99.90
25668;DHT22;18003;-33.830;151.202;2023-05-14T04:25:50;17.30;99.90
25668;DHT22;18003;-33.830;151.202;2023-05-14T04:28:20;17.30;99.90
25668;DHT22;18003;-33.830;151.202;2023-05-14T04:30:53;17.30;99.90
25668;DHT22;18003;-33.830;151.202;2023-05-14T04:33:24;17.20;99.90
25668;DHT22;18003;-33.830;151.202;2023-05-14T04:35:54;17.20;99.90
25668;DHT22;18003;-33.830;151.202;2023-05-14T04:38:24;17.30;99.90
25668;DHT22;18003;-33.830;151.202;2023-05-14T04:40:55;17.20;99.90
25668;DHT22;18003;-33.830;151.202;2023-05-14T04:43:25;17.30;99.90
25668;DHT22;18003;-33.830;151.202;2023-05-14T04:45:55;17.20;99.90
25668;DHT22;18003;-33.830;151.202;2023-05-14T04:48:25;17.30;99.90
25668;DHT22;18003;-33.830;151.202;2023-05-14T04:50:55;17.20;99.90
25668;DHT22;18003;-33.830;151.202;2023-05-14T04:53:30;17.20;99.90
25668;DHT22;18003;-33.830;151.202;2023-05-14T04:55:56;17.20;99.90
25668;DHT22;18003;-33.830;151.202;2023-05-14T04:58:26;17.20;99.90
25668;DHT22;18003;-33.830;151.202;2023-05-14T05:00:58;17.20;99.90
25668;DHT22;18003;-33.830;151.202;2023-05-14T05:03:28;17.30;99.90
25668;DHT22;18003;-33.830;151.202;2023-05-14T05:05:58;17.20;99.90
25668;DHT22;18003;-33.830;151.202;2023-05-14T05:08:28;17.20;99.90
25668;DHT22;18003;-33.830;151.202;2023-05-14T05:10:58;17.20;99.90
25668;DHT22;18003;-33.830;151.202;2023-05-14T05:13:28;17.20;99.90
25668;DHT22;18003;-33.830;151.202;2023-05-14T05:15:59;17.20;99.90
25668;DHT22;18003;-33.830;151.202;2023-05-14T05:18:29;17.20;99.90
25668;DHT22;18003;-33.830;151.202;2023-05-14T05:21:00;17.20;99.90
25668;DHT22;18003;-33.830;151.202;2023-05-14T05:23:30;17.20;99.90
25668;DHT22;18003;-33.830;151.202;2023-05-14T05:26:00;17.20;99.90
25668;DHT22;18003;-33.830;151.202;2023-05-14T05:28:32;17.20;99.90
25668;DHT22;18003;-33.830;151.202;2023-05-14T05:31:03;17.20;99.90
25668;DHT22;18003;-33.830;151.202;2023-05-14T05:36:23;17.20;99.90
25668;DHT22;18003;-33.830;151.202;2023-05-14T05:38:53;17.20;99.90
25668;DHT22;18003;-33.830;151.202;2023-05-14T05:41:23;17.20;99.90
25668;DHT22;18003;-33.830;151.202;2023-05-14T05:43:53;17.20;99.90
25668;DHT22;18003;-33.830;151.202;2023-05-14T05:46:24;17.20;99.90
25668;DHT22;18003;-33.830;151.202;2023-05-14T05:48:53;17.10;99.90
25668;DHT22;18003;-33.830;151.202;2023-05-14T05:51:24;17.20;99.90
25668;DHT22;18003;-33.830;151.202;2023-05-14T05:53:54;17.10;99.90
25668;DHT22;18003;-33.830;151.202;2023-05-14T05:56:24;17.10;99.90
25668;DHT22;18003;-33.830;151.202;2023-05-14T05:58:54;17.20;99.90
25668;DHT22;18003;-33.830;151.202;2023-05-14T06:01:24;17.10;99.90
25668;DHT22;18003;-33.830;151.202;2023-05-14T06:03:54;17.20;99.90
25668;DHT22;18003;-33.830;151.202;2023-05-14T06:06:24;17.10;99.90
25668;DHT22;18003;-33.830;151.202;2023-05-14T06:08:54;17.10;99.90
25668;DHT22;18003;-33.830;151.202;2023-05-14T06:11:24;17.10;99.90
25668;DHT22;18003;-33.830;151.202;2023-05-14T06:13:54;17.10;99.90
25668;DHT22;18003;-33.830;151.202;2023-05-14T06:16:24;17.10;99.90
25668;DHT22;18003;-33.830;151.202;2023-05-14T06:18:54;17.10;99.90
25668;DHT22;18003;-33.830;151.202;2023-05-14T06:21:24;17.10;99.90
25668;DHT22;18003;-33.830;151.202;2023-05-14T06:23:54;17.10;99.90
25668;DHT22;18003;-33.830;151.202;2023-05-14T06:26:24;17.10;99.90
25668;DHT22;18003;-33.830;151.202;2023-05-14T06:28:54;17.10;99.90
25668;DHT22;18003;-33.830;151.202;2023-05-14T06:31:24;17.10;99.90
25668;DHT22;18003;-33.830;151.202;2023-05-14T06:33:53;17.10;99.90
25668;DHT22;18003;-33.830;151.202;2023-05-14T06:36:24;17.10;99.90
25668;DHT22;18003;-33.830;151.202;2023-05-14T06:38:54;17.10;99.90
25668;DHT22;18003;-33.830;151.202;2023-05-14T06:41:24;17.10;99.90
25668;DHT22;18003;-33.830;151.202;2023-05-14T06:43:56;17.00;99.90
25668;DHT22;18003;-33.830;151.202;2023-05-14T06:46:26;17.10;99.90
25668;DHT22;18003;-33.830;151.202;2023-05-14T06:48:56;17.10;99.90
25668;DHT22;18003;-33.830;151.202;2023-05-14T06:51:26;17.10;99.90
25668;DHT22;18003;-33.830;151.202;2023-05-14T06:53:56;17.10;99.90
25668;DHT22;18003;-33.830;151.202;2023-05-14T06:56:26;17.00;99.90
25668;DHT22;18003;-33.830;151.202;2023-05-14T06:58:56;17.00;99.90
25668;DHT22;18003;-33.830;151.202;2023-05-14T07:01:26;17.00;99.90
25668;DHT22;18003;-33.830;151.202;2023-05-14T07:03:56;17.00;99.90
25668;DHT22;18003;-33.830;151.202;2023-05-14T07:06:26;17.00;99.90
25668;DHT22;18003;-33.830;151.202;2023-05-14T07:08:56;17.00;99.90
25668;DHT22;18003;-33.830;151.202;2023-05-14T07:11:26;17.00;99.90
25668;DHT22;18003;-33.830;151.202;2023-05-14T07:16:49;17.00;99.90
25668;DHT22;18003;-33.830;151.202;2023-05-14T07:19:16;17.00;99.90
25668;DHT22;18003;-33.830;151.202;2023-05-14T07:21:51;16.90;99.90
25668;DHT22;18003;-33.830;151.202;2023-05-14T07:24:21;16.90;99.90
25668;DHT22;18003;-33.830;151.202;2023-05-14T07:26:51;16.90;99.90
25668;DHT22;18003;-33.830;151.202;2023-05-14T07:29:21;16.90;99.90
25668;DHT22;18003;-33.830;151.202;2023-05-14T07:34:41;16.90;99.90
25668;DHT22;18003;-33.830;151.202;2023-05-14T07:39:50;16.90;99.90
25668;DHT22;18003;-33.830;151.202;2023-05-14T07:42:16;16.90;99.90
25668;DHT22;18003;-33.830;151.202;2023-05-14T07:44:46;16.90;99.90
25668;DHT22;18003;-33.830;151.202;2023-05-14T07:47:16;16.90;99.90
25668;DHT22;18003;-33.830;151.202;2023-05-14T07:49:46;16.90;99.90
25668;DHT22;18003;-33.830;151.202;2023-05-14T07:52:16;16.90;99.90
25668;DHT22;18003;-33.830;151.202;2023-05-14T07:54:46;16.90;99.90
25668;DHT22;18003;-33.830;151.202;2023-05-14T07:57:16;16.90;99.90
25668;DHT22;18003;-33.830;151.202;2023-05-14T07:59:46;16.90;99.90
25668;DHT22;18003;-33.830;151.202;2023-05-14T08:02:16;16.90;99.90
25668;DHT22;18003;-33.830;151.202;2023-05-14T08:04:46;16.90;99.90
25668;DHT22;18003;-33.830;151.202;2023-05-14T08:07:16;16.80;99.90
25668;DHT22;18003;-33.830;151.202;2023-05-14T08:09:46;16.90;99.90
25668;DHT22;18003;-33.830;151.202;2023-05-14T08:12:16;16.80;99.90
25668;DHT22;18003;-33.830;151.202;2023-05-14T08:14:46;16.90;99.90
25668;DHT22;18003;-33.830;151.202;2023-05-14T08:17:16;16.80;99.90
25668;DHT22;18003;-33.830;151.202;2023-05-14T08:19:46;16.80;99.90
25668;DHT22;18003;-33.830;151.202;2023-05-14T08:22:22;16.90;99.90
25668;DHT22;18003;-33.830;151.202;2023-05-14T08:24:48;16.80;99.90
25668;DHT22;18003;-33.830;151.202;2023-05-14T08:27:18;16.90;99.90
25668;DHT22;18003;-33.830;151.202;2023-05-14T08:29:48;16.80;99.90
25668;DHT22;18003;-33.830;151.202;2023-05-14T08:32:18;16.90;99.90
25668;DHT22;18003;-33.830;151.202;2023-05-14T08:34:48;16.90;99.90
25668;DHT22;18003;-33.830;151.202;2023-05-14T08:37:18;16.90;99.90
25668;DHT22;18003;-33.830;151.202;2023-05-14T08:39:48;16.90;99.90
25668;DHT22;18003;-33.830;151.202;2023-05-14T08:42:20;16.80;99.90
25668;DHT22;18003;-33.830;151.202;2023-05-14T08:44:48;16.90;99.90
25668;DHT22;18003;-33.830;151.202;2023-05-14T08:47:20;16.80;99.90
25668;DHT22;18003;-33.830;151.202;2023-05-14T08:50:07;16.90;99.90
25668;DHT22;18003;-33.830;151.202;2023-05-14T08:52:23;16.90;99.90
25668;DHT22;18003;-33.830;151.202;2023-05-14T08:55:02;16.90;99.90
25668;DHT22;18003;-33.830;151.202;2023-05-14T08:57:29;16.90;99.90
25668;DHT22;18003;-33.830;151.202;2023-05-14T08:59:59;17.00;99.90
25668;DHT22;18003;-33.830;151.202;2023-05-14T09:02:30;17.20;99.90
25668;DHT22;18003;-33.830;151.202;2023-05-14T09:05:01;17.30;99.90
25668;DHT22;18003;-33.830;151.202;2023-05-14T09:07:31;17.40;99.90
25668;DHT22;18003;-33.830;151.202;2023-05-14T09:10:01;17.50;99.90
25668;DHT22;18003;-33.830;151.202;2023-05-14T09:12:31;17.60;99.90
25668;DHT22;18003;-33.830;151.202;2023-05-14T09:15:01;17.60;99.90
25668;DHT22;18003;-33.830;151.202;2023-05-14T09:17:31;17.60;99.90
25668;DHT22;18003;-33.830;151.202;2023-05-14T09:20:02;17.60;99.90
25668;DHT22;18003;-33.830;151.202;2023-05-14T09:22:33;17.60;99.90
25668;DHT22;18003;-33.830;151.202;2023-05-14T09:25:07;17.60;99.90
25668;DHT22;18003;-33.830;151.202;2023-05-14T09:27:38;17.60;99.90
25668;DHT22;18003;-33.830;151.202;2023-05-14T09:30:15;17.70;99.90
25668;DHT22;18003;-33.830;151.202;2023-05-14T09:32:44;17.60;99.90
25668;DHT22;18003;-33.830;151.202;2023-05-14T09:35:17;17.60;99.90
25668;DHT22;18003;-33.830;151.202;2023-05-14T09:37:49;17.60;99.90
25668;DHT22;18003;-33.830;151.202;2023-05-14T09:40:20;17.60;99.90
25668;DHT22;18003;-33.830;151.202;2023-05-14T09:42:50;17.60;99.90
25668;DHT22;18003;-33.830;151.202;2023-05-14T09:45:21;17.60;99.90
25668;DHT22;18003;-33.830;151.202;2023-05-14T09:47:51;17.60;99.90
25668;DHT22;18003;-33.830;151.202;2023-05-14T09:50:21;17.60;99.90
25668;DHT22;18003;-33.830;151.202;2023-05-14T09:52:53;17.60;99.90
25668;DHT22;18003;-33.830;151.202;2023-05-14T09:55:23;17.60;99.90
25668;DHT22;18003;-33.830;151.202;2023-05-14T09:57:53;17.50;99.90
25668;DHT22;18003;-33.830;151.202;2023-05-14T10:00:23;17.50;99.90
25668;DHT22;18003;-33.830;151.202;2023-05-14T10:03:00;17.50;99.90
25668;DHT22;18003;-33.830;151.202;2023-05-14T10:05:25;17.50;99.90
25668;DHT22;18003;-33.830;151.202;2023-05-14T10:07:57;17.50;99.90
25668;DHT22;18003;-33.830;151.202;2023-05-14T10:10:29;17.50;99.90
25668;DHT22;18003;-33.830;151.202;2023-05-14T10:13:22;17.50;99.90
25668;DHT22;18003;-33.830;151.202;2023-05-14T10:18:29;17.50;99.90
25668;DHT22;18003;-33.830;151.202;2023-05-14T10:21:06;17.50;99.90
25668;DHT22;18003;-33.830;151.202;2023-05-14T10:23:36;17.50;99.90
25668;DHT22;18003;-33.830;151.202;2023-05-14T10:26:08;17.50;99.90
25668;DHT22;18003;-33.830;151.202;2023-05-14T10:28:37;17.50;99.90
25668;DHT22;18003;-33.830;151.202;2023-05-14T10:31:08;17.50;99.90
25668;DHT22;18003;-33.830;151.202;2023-05-14T10:33:48;17.50;99.90
25668;DHT22;18003;-33.830;151.202;2023-05-14T10:36:19;17.50;99.90
25668;DHT22;18003;-33.830;151.202;2023-05-14T10:38:53;17.50;99.90
25668;DHT22;18003;-33.830;151.202;2023-05-14T10:41:21;17.40;99.90
25668;DHT22;18003;-33.830;151.202;2023-05-14T10:43:51;17.40;99.90
25668;DHT22;18003;-33.830;151.202;2023-05-14T10:46:22;17.40;99.90
25668;DHT22;18003;-33.830;151.202;2023-05-14T10:48:52;17.40;99.90
25668;DHT22;18003;-33.830;151.202;2023-05-14T10:51:22;17.40;99.90
25668;DHT22;18003;-33.830;151.202;2023-05-14T10:53:52;17.40;99.90
25668;DHT22;18003;-33.830;151.202;2023-05-14T10:56:24;17.40;99.90
25668;DHT22;18003;-33.830;151.202;2023-05-14T10:58:56;17.40;99.90
25668;DHT22;18003;-33.830;151.202;2023-05-14T11:01:24;17.40;99.90
25668;DHT22;18003;-33.830;151.202;2023-05-14T11:03:56;17.40;99.90
25668;DHT22;18003;-33.830;151.202;2023-05-14T11:06:27;17.40;99.90
25668;DHT22;18003;-33.830;151.202;2023-05-14T11:08:57;17.40;99.90
25668;DHT22;18003;-33.830;151.202;2023-05-14T11:11:28;17.40;99.90
25668;DHT22;18003;-33.830;151.202;2023-05-14T11:13:58;17.30;99.90
25668;DHT22;18003;-33.830;151.202;2023-05-14T11:16:28;17.30;99.90
25668;DHT22;18003;-33.830;151.202;2023-05-14T11:19:03;17.30;99.90
25668;DHT22;18003;-33.830;151.202;2023-05-14T11:21:33;17.30;99.90
25668;DHT22;18003;-33.830;151.202;2023-05-14T11:24:03;17.30;99.90
25668;DHT22;18003;-33.830;151.202;2023-05-14T11:26:34;17.30;99.90
25668;DHT22;18003;-33.830;151.202;2023-05-14T11:29:04;17.30;99.90
25668;DHT22;18003;-33.830;151.202;2023-05-14T11:31:35;17.30;99.90
25668;DHT22;18003;-33.830;151.202;2023-05-14T11:34:06;17.30;99.90
25668;DHT22;18003;-33.830;151.202;2023-05-14T11:36:37;17.20;99.90
25668;DHT22;18003;-33.830;151.202;2023-05-14T11:39:07;17.20;99.90
25668;DHT22;18003;-33.830;151.202;2023-05-14T11:41:42;17.20;99.90
25668;DHT22;18003;-33.830;151.202;2023-05-14T11:44:09;17.20;99.90
25668;DHT22;18003;-33.830;151.202;2023-05-14T11:46:38;17.20;99.90
25668;DHT22;18003;-33.830;151.202;2023-05-14T11:49:09;17.10;99.90
25668;DHT22;18003;-33.830;151.202;2023-05-14T11:51:39;17.10;99.90
25668;DHT22;18003;-33.830;151.202;2023-05-14T11:54:09;17.10;99.90
25668;DHT22;18003;-33.830;151.202;2023-05-14T11:56:38;17.10;99.90
25668;DHT22;18003;-33.830;151.202;2023-05-14T11:59:09;17.10;99.90
25668;DHT22;18003;-33.830;151.202;2023-05-14T12:01:39;17.10;99.90
25668;DHT22;18003;-33.830;151.202;2023-05-14T12:04:09;17.10;99.90
25668;DHT22;18003;-33.830;151.202;2023-05-14T12:06:39;17.10;99.90
25668;DHT22;18003;-33.830;151.202;2023-05-14T12:09:11;17.10;99.90
25668;DHT22;18003;-33.830;151.202;2023-05-14T12:11:42;17.00;99.90
25668;DHT22;18003;-33.830;151.202;2023-05-14T12:14:17;17.10;99.90
25668;DHT22;18003;-33.830;151.202;2023-05-14T12:16:47;17.00;99.90
25668;DHT22;18003;-33.830;151.202;2023-05-14T12:19:18;17.00;99.90
25668;DHT22;18003;-33.830;151.202;2023-05-14T12:21:49;17.00;99.90
25668;DHT22;18003;-33.830;151.202;2023-05-14T12:24:20;17.00;99.90
25668;DHT22;18003;-33.830;151.202;2023-05-14T12:26:50;16.90;99.90
25668;DHT22;18003;-33.830;151.202;2023-05-14T12:29:20;17.00;99.90
25668;DHT22;18003;-33.830;151.202;2023-05-14T12:31:50;16.90;99.90
25668;DHT22;18003;-33.830;151.202;2023-05-14T12:34:20;16.90;99.90
25668;DHT22;18003;-33.830;151.202;2023-05-14T12:36:50;16.90;99.90
25668;DHT22;18003;-33.830;151.202;2023-05-14T12:39:21;17.00;99.90
25668;DHT22;18003;-33.830;151.202;2023-05-14T12:41:51;16.90;99.90
25668;DHT22;18003;-33.830;151.202;2023-05-14T12:44:21;16.90;99.90
25668;DHT22;18003;-33.830;151.202;2023-05-14T12:46:51;16.90;99.90
25668;DHT22;18003;-33.830;151.202;2023-05-14T12:49:21;16.90;99.90
25668;DHT22;18003;-33.830;151.202;2023-05-14T12:51:52;16.90;99.90
25668;DHT22;18003;-33.830;151.202;2023-05-14T12:54:21;16.90;99.90
25668;DHT22;18003;-33.830;151.202;2023-05-14T12:56:52;16.80;99.90
25668;DHT22;18003;-33.830;151.202;2023-05-14T12:59:22;16.90;99.90
25668;DHT22;18003;-33.830;151.202;2023-05-14T13:01:52;16.80;99.90
25668;DHT22;18003;-33.830;151.202;2023-05-14T13:04:23;16.80;99.90
25668;DHT22;18003;-33.830;151.202;2023-05-14T13:06:53;16.90;99.90
25668;DHT22;18003;-33.830;151.202;2023-05-14T13:09:24;16.90;99.90
25668;DHT22;18003;-33.830;151.202;2023-05-14T13:11:54;16.80;99.90
25668;DHT22;18003;-33.830;151.202;2023-05-14T13:14:32;16.80;99.90
25668;DHT22;18003;-33.830;151.202;2023-05-14T13:16:58;16.80;99.90
25668;DHT22;18003;-33.830;151.202;2023-05-14T13:19:28;16.80;99.90
25668;DHT22;18003;-33.830;151.202;2023-05-14T13:21:59;16.80;99.90
25668;DHT22;18003;-33.830;151.202;2023-05-14T13:24:32;16.80;99.90
25668;DHT22;18003;-33.830;151.202;2023-05-14T13:27:03;16.80;99.90
25668;DHT22;18003;-33.830;151.202;2023-05-14T13:29:33;16.80;99.90
25668;DHT22;18003;-33.830;151.202;2023-05-14T13:32:03;16.80;99.90
25668;DHT22;18003;-33.830;151.202;2023-05-14T13:34:33;16.70;99.90
25668;DHT22;18003;-33.830;151.202;2023-05-14T13:37:03;16.80;99.90
25668;DHT22;18003;-33.830;151.202;2023-05-14T13:39:33;16.70;99.90
25668;DHT22;18003;-33.830;151.202;2023-05-14T13:42:03;16.80;99.90
25668;DHT22;18003;-33.830;151.202;2023-05-14T13:44:33;16.80;99.90
25668;DHT22;18003;-33.830;151.202;2023-05-14T13:47:04;16.70;99.90
25668;DHT22;18003;-33.830;151.202;2023-05-14T13:49:34;16.70;99.90
25668;DHT22;18003;-33.830;151.202;2023-05-14T13:52:04;16.70;99.90
25668;DHT22;18003;-33.830;151.202;2023-05-14T13:54:35;16.70;99.90
25668;DHT22;18003;-33.830;151.202;2023-05-14T13:57:05;16.70;99.90
25668;DHT22;18003;-33.830;151.202;2023-05-14T13:59:35;16.60;99.90
25668;DHT22;18003;-33.830;151.202;2023-05-14T14:02:05;16.70;99.90
25668;DHT22;18003;-33.830;151.202;2023-05-14T14:04:35;16.70;99.90
25668;DHT22;18003;-33.830;151.202;2023-05-14T14:07:05;16.70;99.90
25668;DHT22;18003;-33.830;151.202;2023-05-14T14:09:36;16.70;99.90
25668;DHT22;18003;-33.830;151.202;2023-05-14T14:12:25;16.70;99.90
25668;DHT22;18003;-33.830;151.202;2023-05-14T14:14:55;16.60;99.90
25668;DHT22;18003;-33.830;151.202;2023-05-14T14:17:25;16.60;99.90
25668;DHT22;18003;-33.830;151.202;2023-05-14T14:19:55;16.60;99.90
25668;DHT22;18003;-33.830;151.202;2023-05-14T14:22:25;16.60;99.90
25668;DHT22;18003;-33.830;151.202;2023-05-14T14:24:55;16.60;99.90
25668;DHT22;18003;-33.830;151.202;2023-05-14T14:27:25;16.60;99.90
25668;DHT22;18003;-33.830;151.202;2023-05-14T14:29:55;16.60;99.90
25668;DHT22;18003;-33.830;151.202;2023-05-14T14:32:25;16.60;99.90
25668;DHT22;18003;-33.830;151.202;2023-05-14T14:34:55;16.60;99.90
25668;DHT22;18003;-33.830;151.202;2023-05-14T14:37:25;16.60;99.90
25668;DHT22;18003;-33.830;151.202;2023-05-14T14:39:55;16.60;99.90
25668;DHT22;18003;-33.830;151.202;2023-05-14T14:42:25;16.60;99.90
25668;DHT22;18003;-33.830;151.202;2023-05-14T14:44:55;16.60;99.90
25668;DHT22;18003;-33.830;151.202;2023-05-14T14:47:25;16.60;99.90
25668;DHT22;18003;-33.830;151.202;2023-05-14T14:49:55;16.60;99.90
25668;DHT22;18003;-33.830;151.202;2023-05-14T14:52:26;16.60;99.90
25668;DHT22;18003;-33.830;151.202;2023-05-14T14:54:56;16.60;99.90
25668;DHT22;18003;-33.830;151.202;2023-05-14T14:57:27;16.60;99.90
25668;DHT22;18003;-33.830;151.202;2023-05-14T14:59:57;16.60;99.90
25668;DHT22;18003;-33.830;151.202;2023-05-14T15:02:27;16.60;99.90
25668;DHT22;18003;-33.830;151.202;2023-05-14T15:04:57;16.60;99.90
25668;DHT22;18003;-33.830;151.202;2023-05-14T15:07:27;16.60;99.90
25668;DHT22;18003;-33.830;151.202;2023-05-14T15:09:58;16.60;99.90
25668;DHT22;18003;-33.830;151.202;2023-05-14T15:12:28;16.50;99.90
25668;DHT22;18003;-33.830;151.202;2023-05-14T15:14:58;16.60;99.90
25668;DHT22;18003;-33.830;151.202;2023-05-14T15:17:28;16.60;99.90
25668;DHT22;18003;-33.830;151.202;2023-05-14T15:19:58;16.50;99.90
25668;DHT22;18003;-33.830;151.202;2023-05-14T15:22:29;16.60;99.90
25668;DHT22;18003;-33.830;151.202;2023-05-14T15:24:59;16.60;99.90
25668;DHT22;18003;-33.830;151.202;2023-05-14T15:27:29;16.50;99.90